Weather at Chengdu Shuangliu International Airport

Public forecast

Using degrees Celsius for public forecast. Weather courtesy of forecast.io.

Current aviation weather report (METAR) for Chengdu Shuangliu International Airport

Report is more than 6 hours old.

2022/11/14 15:00 (retrieved 2 years ago)

ZUUU 141500Z 14002MPS 9999 SCT040 14/07 Q1022 NOSIG

Aviation forecast (TAF) for Chengdu Shuangliu International Airport

Forecast is more than 12 hours old.

2023/02/22 18:10 (retrieved 1 year ago)

TAF ZUUU 221506Z 2218/2318 33003MPS 6000 SCT030 TX12/2307Z TN06/2223Z TEMPO 2218/2224 -RA